sensor_id;sensor_type;location;lat;lon;timestamp;P1;durP1;ratioP1;P2;durP2;ratioP2
7807;SDS011;3949;49.254;8.894;2023-02-15T00:00:13;34.53;;;21.23;;
7807;SDS011;3949;49.254;8.894;2023-02-15T00:02:39;40.00;;;23.43;;
7807;SDS011;3949;49.254;8.894;2023-02-15T00:05:06;41.00;;;23.10;;
7807;SDS011;3949;49.254;8.894;2023-02-15T00:07:32;39.73;;;21.47;;
7807;SDS011;3949;49.254;8.894;2023-02-15T00:09:58;36.50;;;21.67;;
7807;SDS011;3949;49.254;8.894;2023-02-15T00:12:24;32.20;;;20.57;;
7807;SDS011;3949;49.254;8.894;2023-02-15T00:14:50;45.67;;;22.87;;
7807;SDS011;3949;49.254;8.894;2023-02-15T00:17:16;35.93;;;21.30;;
7807;SDS011;3949;49.254;8.894;2023-02-15T00:19:42;43.33;;;20.53;;
7807;SDS011;3949;49.254;8.894;2023-02-15T00:22:08;34.33;;;21.33;;
7807;SDS011;3949;49.254;8.894;2023-02-15T00:24:34;56.73;;;39.90;;
7807;SDS011;3949;49.254;8.894;2023-02-15T00:27:00;56.10;;;38.97;;
7807;SDS011;3949;49.254;8.894;2023-02-15T00:29:26;49.33;;;31.30;;
7807;SDS011;3949;49.254;8.894;2023-02-15T00:31:53;38.80;;;22.57;;
7807;SDS011;3949;49.254;8.894;2023-02-15T00:34:20;38.80;;;22.57;;
7807;SDS011;3949;49.254;8.894;2023-02-15T00:36:47;34.90;;;21.47;;
7807;SDS011;3949;49.254;8.894;2023-02-15T00:39:13;38.77;;;22.43;;
7807;SDS011;3949;49.254;8.894;2023-02-15T00:41:40;36.80;;;21.07;;
7807;SDS011;3949;49.254;8.894;2023-02-15T00:44:06;38.80;;;21.90;;
7807;SDS011;3949;49.254;8.894;2023-02-15T00:46:32;38.70;;;20.07;;
7807;SDS011;3949;49.254;8.894;2023-02-15T00:48:58;37.93;;;20.97;;
7807;SDS011;3949;49.254;8.894;2023-02-15T00:51:25;34.67;;;20.50;;
7807;SDS011;3949;49.254;8.894;2023-02-15T00:53:51;30.67;;;19.07;;
7807;SDS011;3949;49.254;8.894;2023-02-15T00:56:17;37.83;;;21.47;;
7807;SDS011;3949;49.254;8.894;2023-02-15T00:58:43;34.17;;;21.07;;
7807;SDS011;3949;49.254;8.894;2023-02-15T01:01:13;36.03;;;20.67;;
7807;SDS011;3949;49.254;8.894;2023-02-15T01:03:40;30.27;;;20.07;;
7807;SDS011;3949;49.254;8.894;2023-02-15T01:06:09;34.17;;;20.73;;
7807;SDS011;3949;49.254;8.894;2023-02-15T01:08:35;39.00;;;20.80;;
7807;SDS011;3949;49.254;8.894;2023-02-15T01:11:06;36.60;;;20.50;;
7807;SDS011;3949;49.254;8.894;2023-02-15T01:13:32;32.30;;;19.93;;
7807;SDS011;3949;49.254;8.894;2023-02-15T01:15:58;34.60;;;21.27;;
7807;SDS011;3949;49.254;8.894;2023-02-15T01:18:24;33.60;;;20.73;;
7807;SDS011;3949;49.254;8.894;2023-02-15T01:20:50;35.13;;;20.93;;
7807;SDS011;3949;49.254;8.894;2023-02-15T01:23:16;36.20;;;19.97;;
7807;SDS011;3949;49.254;8.894;2023-02-15T01:25:42;35.67;;;20.67;;
7807;SDS011;3949;49.254;8.894;2023-02-15T01:28:08;30.83;;;19.97;;
7807;SDS011;3949;49.254;8.894;2023-02-15T01:30:34;24.57;;;17.90;;
7807;SDS011;3949;49.254;8.894;2023-02-15T01:33:00;37.47;;;21.33;;
7807;SDS011;3949;49.254;8.894;2023-02-15T01:35:26;30.90;;;19.63;;
7807;SDS011;3949;49.254;8.894;2023-02-15T01:37:52;34.47;;;19.63;;
7807;SDS011;3949;49.254;8.894;2023-02-15T01:40:18;32.67;;;19.77;;
7807;SDS011;3949;49.254;8.894;2023-02-15T01:42:44;32.33;;;19.90;;
7807;SDS011;3949;49.254;8.894;2023-02-15T01:47:44;32.10;;;19.53;;
7807;SDS011;3949;49.254;8.894;2023-02-15T01:50:18;34.87;;;20.13;;
7807;SDS011;3949;49.254;8.894;2023-02-15T01:52:57;35.90;;;19.70;;
7807;SDS011;3949;49.254;8.894;2023-02-15T01:55:25;38.73;;;20.93;;
7807;SDS011;3949;49.254;8.894;2023-02-15T01:57:52;31.83;;;20.13;;
7807;SDS011;3949;49.254;8.894;2023-02-15T02:00:19;31.07;;;19.87;;
7807;SDS011;3949;49.254;8.894;2023-02-15T02:02:46;27.87;;;18.90;;
7807;SDS011;3949;49.254;8.894;2023-02-15T02:05:15;34.67;;;19.70;;
7807;SDS011;3949;49.254;8.894;2023-02-15T02:07:42;31.27;;;19.67;;
7807;SDS011;3949;49.254;8.894;2023-02-15T02:10:10;36.27;;;21.17;;
7807;SDS011;3949;49.254;8.894;2023-02-15T02:12:36;32.60;;;19.40;;
7807;SDS011;3949;49.254;8.894;2023-02-15T02:15:03;35.50;;;19.00;;
7807;SDS011;3949;49.254;8.894;2023-02-15T02:25:16;37.47;;;19.20;;
7807;SDS011;3949;49.254;8.894;2023-02-15T02:28:11;38.43;;;19.73;;
7807;SDS011;3949;49.254;8.894;2023-02-15T02:33:17;41.93;;;20.40;;
7807;SDS011;3949;49.254;8.894;2023-02-15T02:44:09;35.40;;;19.90;;
7807;SDS011;3949;49.254;8.894;2023-02-15T02:46:17;45.33;;;19.83;;
7807;SDS011;3949;49.254;8.894;2023-02-15T02:48:45;39.93;;;21.20;;
7807;SDS011;3949;49.254;8.894;2023-02-15T02:51:12;36.53;;;20.90;;
7807;SDS011;3949;49.254;8.894;2023-02-15T02:53:39;37.07;;;20.30;;
7807;SDS011;3949;49.254;8.894;2023-02-15T02:58:41;33.23;;;20.03;;
7807;SDS011;3949;49.254;8.894;2023-02-15T03:01:15;35.83;;;20.33;;
7807;SDS011;3949;49.254;8.894;2023-02-15T03:06:19;40.47;;;20.57;;
7807;SDS011;3949;49.254;8.894;2023-02-15T03:08:50;35.67;;;20.43;;
7807;SDS011;3949;49.254;8.894;2023-02-15T03:11:17;36.73;;;19.17;;
7807;SDS011;3949;49.254;8.894;2023-02-15T03:13:46;41.77;;;20.07;;
7807;SDS011;3949;49.254;8.894;2023-02-15T03:16:13;32.70;;;20.10;;
7807;SDS011;3949;49.254;8.894;2023-02-15T03:18:52;32.57;;;18.50;;
7807;SDS011;3949;49.254;8.894;2023-02-15T03:21:29;34.47;;;19.63;;
7807;SDS011;3949;49.254;8.894;2023-02-15T03:24:01;36.20;;;19.47;;
7807;SDS011;3949;49.254;8.894;2023-02-15T03:26:29;36.23;;;19.33;;
7807;SDS011;3949;49.254;8.894;2023-02-15T03:28:56;31.33;;;18.60;;
7807;SDS011;3949;49.254;8.894;2023-02-15T03:31:24;37.33;;;18.87;;
7807;SDS011;3949;49.254;8.894;2023-02-15T03:33:54;28.47;;;17.83;;
7807;SDS011;3949;49.254;8.894;2023-02-15T03:36:22;37.70;;;19.00;;
7807;SDS011;3949;49.254;8.894;2023-02-15T03:38:55;40.87;;;25.83;;
7807;SDS011;3949;49.254;8.894;2023-02-15T03:41:24;33.13;;;19.87;;
7807;SDS011;3949;49.254;8.894;2023-02-15T03:43:53;29.60;;;17.53;;
7807;SDS011;3949;49.254;8.894;2023-02-15T03:46:24;30.27;;;17.47;;
7807;SDS011;3949;49.254;8.894;2023-02-15T03:49:13;36.73;;;18.70;;
7807;SDS011;3949;49.254;8.894;2023-02-15T03:51:40;34.67;;;20.13;;
7807;SDS011;3949;49.254;8.894;2023-02-15T03:54:15;45.77;;;18.47;;
7807;SDS011;3949;49.254;8.894;2023-02-15T03:57:02;36.13;;;18.40;;
7807;SDS011;3949;49.254;8.894;2023-02-15T03:59:47;45.67;;;25.67;;
7807;SDS011;3949;49.254;8.894;2023-02-15T04:02:40;37.20;;;19.50;;
7807;SDS011;3949;49.254;8.894;2023-02-15T04:05:10;31.00;;;17.67;;
7807;SDS011;3949;49.254;8.894;2023-02-15T04:07:36;27.60;;;17.40;;
7807;SDS011;3949;49.254;8.894;2023-02-15T04:10:02;38.03;;;18.63;;
7807;SDS011;3949;49.254;8.894;2023-02-15T04:12:47;35.30;;;18.63;;
7807;SDS011;3949;49.254;8.894;2023-02-15T04:15:13;38.47;;;18.73;;
7807;SDS011;3949;49.254;8.894;2023-02-15T04:17:58;34.00;;;19.40;;
7807;SDS011;3949;49.254;8.894;2023-02-15T04:20:24;50.13;;;19.20;;
7807;SDS011;3949;49.254;8.894;2023-02-15T04:23:08;30.67;;;18.30;;
7807;SDS011;3949;49.254;8.894;2023-02-15T04:25:53;47.40;;;20.87;;
7807;SDS011;3949;49.254;8.894;2023-02-15T04:28:19;35.10;;;18.30;;
7807;SDS011;3949;49.254;8.894;2023-02-15T04:30:46;31.90;;;18.13;;
7807;SDS011;3949;49.254;8.894;2023-02-15T04:33:12;33.97;;;18.57;;
7807;SDS011;3949;49.254;8.894;2023-02-15T04:35:38;31.83;;;18.77;;
7807;SDS011;3949;49.254;8.894;2023-02-15T04:38:04;31.33;;;17.97;;
7807;SDS011;3949;49.254;8.894;2023-02-15T04:40:30;31.07;;;18.20;;
7807;SDS011;3949;49.254;8.894;2023-02-15T04:42:56;37.47;;;18.60;;
7807;SDS011;3949;49.254;8.894;2023-02-15T04:45:22;33.33;;;18.03;;
7807;SDS011;3949;49.254;8.894;2023-02-15T04:47:48;28.10;;;17.20;;
7807;SDS011;3949;49.254;8.894;2023-02-15T04:50:14;33.50;;;18.27;;
7807;SDS011;3949;49.254;8.894;2023-02-15T04:52:40;35.20;;;18.80;;
7807;SDS011;3949;49.254;8.894;2023-02-15T04:55:06;31.20;;;17.80;;
7807;SDS011;3949;49.254;8.894;2023-02-15T04:57:33;33.40;;;17.80;;
7807;SDS011;3949;49.254;8.894;2023-02-15T04:59:59;41.30;;;17.70;;
7807;SDS011;3949;49.254;8.894;2023-02-15T05:02:25;29.57;;;16.53;;
7807;SDS011;3949;49.254;8.894;2023-02-15T05:04:51;40.03;;;18.03;;
7807;SDS011;3949;49.254;8.894;2023-02-15T05:07:17;38.87;;;18.87;;
7807;SDS011;3949;49.254;8.894;2023-02-15T05:09:45;37.77;;;18.40;;
7807;SDS011;3949;49.254;8.894;2023-02-15T05:12:11;30.67;;;17.63;;
7807;SDS011;3949;49.254;8.894;2023-02-15T05:14:37;35.50;;;18.43;;
7807;SDS011;3949;49.254;8.894;2023-02-15T05:17:03;41.27;;;17.83;;
7807;SDS011;3949;49.254;8.894;2023-02-15T05:19:30;45.10;;;18.17;;
7807;SDS011;3949;49.254;8.894;2023-02-15T05:21:56;34.30;;;17.23;;
7807;SDS011;3949;49.254;8.894;2023-02-15T05:24:22;35.23;;;18.17;;
7807;SDS011;3949;49.254;8.894;2023-02-15T05:27:07;29.33;;;16.27;;
7807;SDS011;3949;49.254;8.894;2023-02-15T05:29:54;40.33;;;17.20;;
7807;SDS011;3949;49.254;8.894;2023-02-15T05:32:20;30.50;;;17.87;;
7807;SDS011;3949;49.254;8.894;2023-02-15T05:34:46;51.83;;;18.57;;
7807;SDS011;3949;49.254;8.894;2023-02-15T05:37:12;32.17;;;17.83;;
7807;SDS011;3949;49.254;8.894;2023-02-15T05:39:38;31.73;;;17.83;;
7807;SDS011;3949;49.254;8.894;2023-02-15T05:42:04;35.93;;;17.87;;
7807;SDS011;3949;49.254;8.894;2023-02-15T05:44:30;38.07;;;16.93;;
7807;SDS011;3949;49.254;8.894;2023-02-15T05:46:56;43.20;;;20.40;;
7807;SDS011;3949;49.254;8.894;2023-02-15T05:49:22;38.60;;;17.60;;
7807;SDS011;3949;49.254;8.894;2023-02-15T05:51:48;42.23;;;19.50;;
7807;SDS011;3949;49.254;8.894;2023-02-15T05:54:14;31.03;;;18.13;;
7807;SDS011;3949;49.254;8.894;2023-02-15T05:56:40;35.13;;;17.57;;
7807;SDS011;3949;49.254;8.894;2023-02-15T05:59:06;31.63;;;17.63;;
7807;SDS011;3949;49.254;8.894;2023-02-15T06:01:32;25.07;;;16.47;;
7807;SDS011;3949;49.254;8.894;2023-02-15T06:03:58;30.50;;;17.13;;
7807;SDS011;3949;49.254;8.894;2023-02-15T06:06:24;38.00;;;18.03;;
7807;SDS011;3949;49.254;8.894;2023-02-15T06:08:50;32.03;;;15.93;;
7807;SDS011;3949;49.254;8.894;2023-02-15T06:11:19;32.70;;;16.93;;
7807;SDS011;3949;49.254;8.894;2023-02-15T06:13:45;31.10;;;17.20;;
7807;SDS011;3949;49.254;8.894;2023-02-15T06:16:11;34.10;;;17.57;;
7807;SDS011;3949;49.254;8.894;2023-02-15T06:18:37;37.77;;;17.73;;
7807;SDS011;3949;49.254;8.894;2023-02-15T06:21:03;32.47;;;16.53;;
7807;SDS011;3949;49.254;8.894;2023-02-15T06:23:29;26.87;;;15.87;;
7807;SDS011;3949;49.254;8.894;2023-02-15T06:25:55;28.40;;;17.00;;
7807;SDS011;3949;49.254;8.894;2023-02-15T06:28:21;29.37;;;16.83;;
7807;SDS011;3949;49.254;8.894;2023-02-15T06:30:47;29.03;;;16.37;;
7807;SDS011;3949;49.254;8.894;2023-02-15T06:33:13;42.37;;;17.97;;
7807;SDS011;3949;49.254;8.894;2023-02-15T06:35:39;27.53;;;16.53;;
7807;SDS011;3949;49.254;8.894;2023-02-15T06:38:05;28.13;;;16.13;;
7807;SDS011;3949;49.254;8.894;2023-02-15T06:40:31;28.07;;;15.60;;
7807;SDS011;3949;49.254;8.894;2023-02-15T06:42:57;37.83;;;19.10;;
7807;SDS011;3949;49.254;8.894;2023-02-15T06:45:23;33.93;;;17.50;;
7807;SDS011;3949;49.254;8.894;2023-02-15T06:47:49;27.13;;;16.73;;
7807;SDS011;3949;49.254;8.894;2023-02-15T06:50:15;33.27;;;16.37;;
7807;SDS011;3949;49.254;8.894;2023-02-15T06:52:41;28.70;;;17.07;;
7807;SDS011;3949;49.254;8.894;2023-02-15T06:55:07;36.03;;;18.27;;
7807;SDS011;3949;49.254;8.894;2023-02-15T06:57:33;29.43;;;16.13;;
7807;SDS011;3949;49.254;8.894;2023-02-15T06:59:59;29.80;;;17.50;;
7807;SDS011;3949;49.254;8.894;2023-02-15T07:02:26;28.33;;;15.77;;
7807;SDS011;3949;49.254;8.894;2023-02-15T07:04:52;32.50;;;17.93;;
7807;SDS011;3949;49.254;8.894;2023-02-15T07:07:18;26.73;;;17.43;;
7807;SDS011;3949;49.254;8.894;2023-02-15T07:09:43;28.43;;;15.63;;
7807;SDS011;3949;49.254;8.894;2023-02-15T07:12:09;26.40;;;16.67;;
7807;SDS011;3949;49.254;8.894;2023-02-15T07:14:54;26.10;;;15.70;;
7807;SDS011;3949;49.254;8.894;2023-02-15T07:17:20;26.43;;;16.70;;
7807;SDS011;3949;49.254;8.894;2023-02-15T07:19:47;26.57;;;16.23;;
7807;SDS011;3949;49.254;8.894;2023-02-15T07:22:13;23.60;;;16.23;;
7807;SDS011;3949;49.254;8.894;2023-02-15T07:24:39;34.60;;;16.77;;
7807;SDS011;3949;49.254;8.894;2023-02-15T07:27:06;24.07;;;15.90;;
7807;SDS011;3949;49.254;8.894;2023-02-15T07:29:32;26.37;;;16.47;;
7807;SDS011;3949;49.254;8.894;2023-02-15T07:31:58;24.17;;;16.23;;
7807;SDS011;3949;49.254;8.894;2023-02-15T07:34:24;22.73;;;15.83;;
7807;SDS011;3949;49.254;8.894;2023-02-15T07:36:50;27.33;;;15.83;;
7807;SDS011;3949;49.254;8.894;2023-02-15T07:39:16;25.57;;;15.27;;
7807;SDS011;3949;49.254;8.894;2023-02-15T07:41:42;23.30;;;16.20;;
7807;SDS011;3949;49.254;8.894;2023-02-15T07:44:12;30.90;;;18.93;;
7807;SDS011;3949;49.254;8.894;2023-02-15T07:46:41;27.73;;;18.07;;
7807;SDS011;3949;49.254;8.894;2023-02-15T07:49:07;26.27;;;16.63;;
7807;SDS011;3949;49.254;8.894;2023-02-15T07:51:33;26.37;;;16.47;;
7807;SDS011;3949;49.254;8.894;2023-02-15T07:53:59;29.70;;;17.50;;
7807;SDS011;3949;49.254;8.894;2023-02-15T07:56:25;28.13;;;17.10;;
7807;SDS011;3949;49.254;8.894;2023-02-15T07:58:51;29.63;;;16.53;;
7807;SDS011;3949;49.254;8.894;2023-02-15T08:01:18;25.57;;;16.63;;
7807;SDS011;3949;49.254;8.894;2023-02-15T08:03:44;26.93;;;15.87;;
7807;SDS011;3949;49.254;8.894;2023-02-15T08:06:10;25.40;;;16.93;;
7807;SDS011;3949;49.254;8.894;2023-02-15T08:08:38;29.77;;;17.00;;
7807;SDS011;3949;49.254;8.894;2023-02-15T08:11:13;30.57;;;16.57;;
7807;SDS011;3949;49.254;8.894;2023-02-15T08:16:40;21.43;;;15.93;;
7807;SDS011;3949;49.254;8.894;2023-02-15T08:19:10;23.63;;;15.23;;
7807;SDS011;3949;49.254;8.894;2023-02-15T08:21:37;23.50;;;16.40;;
7807;SDS011;3949;49.254;8.894;2023-02-15T08:24:03;28.70;;;17.20;;
7807;SDS011;3949;49.254;8.894;2023-02-15T08:26:29;21.13;;;14.70;;
7807;SDS011;3949;49.254;8.894;2023-02-15T08:28:56;28.17;;;15.80;;
7807;SDS011;3949;49.254;8.894;2023-02-15T08:31:23;20.53;;;14.37;;
7807;SDS011;3949;49.254;8.894;2023-02-15T08:33:50;28.60;;;15.57;;
7807;SDS011;3949;49.254;8.894;2023-02-15T08:36:17;19.20;;;13.77;;
7807;SDS011;3949;49.254;8.894;2023-02-15T08:38:43;19.73;;;14.53;;
7807;SDS011;3949;49.254;8.894;2023-02-15T08:43:36;19.93;;;14.70;;
7807;SDS011;3949;49.254;8.894;2023-02-15T08:46:02;27.10;;;14.97;;
7807;SDS011;3949;49.254;8.894;2023-02-15T08:48:28;19.40;;;14.50;;
7807;SDS011;3949;49.254;8.894;2023-02-15T08:50:54;18.03;;;13.33;;
7807;SDS011;3949;49.254;8.894;2023-02-15T08:53:20;20.37;;;15.03;;
7807;SDS011;3949;49.254;8.894;2023-02-15T08:55:56;19.53;;;15.43;;
7807;SDS011;3949;49.254;8.894;2023-02-15T08:58:22;21.33;;;14.27;;
7807;SDS011;3949;49.254;8.894;2023-02-15T09:00:48;20.23;;;14.47;;
7807;SDS011;3949;49.254;8.894;2023-02-15T09:03:14;20.40;;;14.83;;
7807;SDS011;3949;49.254;8.894;2023-02-15T09:05:40;20.03;;;15.17;;
7807;SDS011;3949;49.254;8.894;2023-02-15T09:08:06;18.13;;;13.50;;
7807;SDS011;3949;49.254;8.894;2023-02-15T09:10:33;19.57;;;14.57;;
7807;SDS011;3949;49.254;8.894;2023-02-15T09:12:59;21.63;;;15.33;;
7807;SDS011;3949;49.254;8.894;2023-02-15T09:15:25;18.13;;;14.13;;
7807;SDS011;3949;49.254;8.894;2023-02-15T09:17:51;17.60;;;14.50;;
7807;SDS011;3949;49.254;8.894;2023-02-15T09:20:17;17.43;;;14.07;;
7807;SDS011;3949;49.254;8.894;2023-02-15T09:22:42;19.57;;;14.20;;
7807;SDS011;3949;49.254;8.894;2023-02-15T09:25:09;17.90;;;13.63;;
7807;SDS011;3949;49.254;8.894;2023-02-15T09:27:35;18.23;;;13.60;;
7807;SDS011;3949;49.254;8.894;2023-02-15T09:30:02;21.40;;;15.23;;
7807;SDS011;3949;49.254;8.894;2023-02-15T09:32:28;24.13;;;16.83;;
7807;SDS011;3949;49.254;8.894;2023-02-15T09:34:54;16.30;;;13.20;;
7807;SDS011;3949;49.254;8.894;2023-02-15T09:37:20;17.27;;;13.50;;
7807;SDS011;3949;49.254;8.894;2023-02-15T09:39:46;17.50;;;14.30;;
7807;SDS011;3949;49.254;8.894;2023-02-15T09:42:19;17.67;;;14.20;;
7807;SDS011;3949;49.254;8.894;2023-02-15T09:50:13;18.63;;;14.33;;
7807;SDS011;3949;49.254;8.894;2023-02-15T10:01:08;18.30;;;14.13;;
7807;SDS011;3949;49.254;8.894;2023-02-15T10:03:44;17.00;;;13.37;;
7807;SDS011;3949;49.254;8.894;2023-02-15T10:06:17;22.90;;;14.67;;
7807;SDS011;3949;49.254;8.894;2023-02-15T10:11:17;16.30;;;13.60;;
7807;SDS011;3949;49.254;8.894;2023-02-15T10:16:39;23.20;;;17.60;;
7807;SDS011;3949;49.254;8.894;2023-02-15T10:26:47;19.60;;;15.97;;
7807;SDS011;3949;49.254;8.894;2023-02-15T10:31:59;41.23;;;25.97;;
7807;SDS011;3949;49.254;8.894;2023-02-15T10:34:39;29.63;;;20.43;;
7807;SDS011;3949;49.254;8.894;2023-02-15T10:45:07;17.80;;;14.50;;
7807;SDS011;3949;49.254;8.894;2023-02-15T10:47:49;17.87;;;14.40;;
7807;SDS011;3949;49.254;8.894;2023-02-15T10:50:23;33.57;;;21.93;;
7807;SDS011;3949;49.254;8.894;2023-02-15T10:52:55;20.63;;;15.47;;
7807;SDS011;3949;49.254;8.894;2023-02-15T10:58:11;32.30;;;20.60;;
7807;SDS011;3949;49.254;8.894;2023-02-15T11:00:41;19.90;;;15.90;;
7807;SDS011;3949;49.254;8.894;2023-02-15T11:08:23;19.83;;;16.10;;
7807;SDS011;3949;49.254;8.894;2023-02-15T11:11:00;20.70;;;16.27;;
7807;SDS011;3949;49.254;8.894;2023-02-15T11:13:29;20.03;;;16.10;;
7807;SDS011;3949;49.254;8.894;2023-02-15T11:16:06;24.03;;;15.47;;
7807;SDS011;3949;49.254;8.894;2023-02-15T11:18:37;18.23;;;14.13;;
7807;SDS011;3949;49.254;8.894;2023-02-15T11:21:20;21.70;;;16.23;;
7807;SDS011;3949;49.254;8.894;2023-02-15T11:23:47;24.23;;;17.73;;
7807;SDS011;3949;49.254;8.894;2023-02-15T11:26:28;24.77;;;18.50;;
7807;SDS011;3949;49.254;8.894;2023-02-15T11:29:07;24.03;;;17.50;;
7807;SDS011;3949;49.254;8.894;2023-02-15T11:31:46;20.33;;;15.43;;
7807;SDS011;3949;49.254;8.894;2023-02-15T11:34:33;20.43;;;16.47;;
7807;SDS011;3949;49.254;8.894;2023-02-15T11:37:01;24.50;;;16.53;;
7807;SDS011;3949;49.254;8.894;2023-02-15T11:39:30;23.43;;;16.90;;
7807;SDS011;3949;49.254;8.894;2023-02-15T11:41:59;33.80;;;21.70;;
7807;SDS011;3949;49.254;8.894;2023-02-15T11:44:31;20.67;;;15.53;;
7807;SDS011;3949;49.254;8.894;2023-02-15T11:46:58;21.90;;;16.90;;
7807;SDS011;3949;49.254;8.894;2023-02-15T11:49:34;32.37;;;22.07;;
7807;SDS011;3949;49.254;8.894;2023-02-15T11:52:02;30.37;;;20.83;;
7807;SDS011;3949;49.254;8.894;2023-02-15T11:54:30;30.30;;;22.07;;
7807;SDS011;3949;49.254;8.894;2023-02-15T11:56:59;18.43;;;15.07;;
7807;SDS011;3949;49.254;8.894;2023-02-15T11:59:30;18.43;;;15.50;;
7807;SDS011;3949;49.254;8.894;2023-02-15T12:01:58;18.40;;;14.97;;
7807;SDS011;3949;49.254;8.894;2023-02-15T12:04:35;16.97;;;14.10;;
7807;SDS011;3949;49.254;8.894;2023-02-15T12:12:19;20.23;;;15.50;;
7807;SDS011;3949;49.254;8.894;2023-02-15T12:14:47;17.43;;;14.87;;
7807;SDS011;3949;49.254;8.894;2023-02-15T12:17:14;17.37;;;14.23;;
7807;SDS011;3949;49.254;8.894;2023-02-15T12:19:41;17.57;;;14.93;;
7807;SDS011;3949;49.254;8.894;2023-02-15T12:22:24;16.60;;;14.50;;
7807;SDS011;3949;49.254;8.894;2023-02-15T12:24:51;17.63;;;13.80;;
7807;SDS011;3949;49.254;8.894;2023-02-15T12:27:51;18.93;;;14.73;;
7807;SDS011;3949;49.254;8.894;2023-02-15T12:35:56;17.03;;;14.23;;
7807;SDS011;3949;49.254;8.894;2023-02-15T12:38:24;18.33;;;15.10;;
7807;SDS011;3949;49.254;8.894;2023-02-15T12:41:01;17.50;;;14.80;;
7807;SDS011;3949;49.254;8.894;2023-02-15T12:45:53;16.40;;;14.13;;
7807;SDS011;3949;49.254;8.894;2023-02-15T12:48:39;18.23;;;15.07;;
7807;SDS011;3949;49.254;8.894;2023-02-15T12:51:08;18.47;;;15.13;;
7807;SDS011;3949;49.254;8.894;2023-02-15T12:53:35;16.47;;;13.33;;
7807;SDS011;3949;49.254;8.894;2023-02-15T12:56:03;18.03;;;14.30;;
7807;SDS011;3949;49.254;8.894;2023-02-15T12:58:30;17.37;;;14.50;;
7807;SDS011;3949;49.254;8.894;2023-02-15T13:01:10;18.40;;;15.07;;
7807;SDS011;3949;49.254;8.894;2023-02-15T13:03:37;17.70;;;14.60;;
7807;SDS011;3949;49.254;8.894;2023-02-15T13:06:04;16.77;;;14.73;;
7807;SDS011;3949;49.254;8.894;2023-02-15T13:08:35;16.70;;;14.27;;
7807;SDS011;3949;49.254;8.894;2023-02-15T13:11:04;16.37;;;13.57;;
7807;SDS011;3949;49.254;8.894;2023-02-15T13:13:33;16.23;;;14.37;;
7807;SDS011;3949;49.254;8.894;2023-02-15T13:16:01;16.53;;;14.50;;
7807;SDS011;3949;49.254;8.894;2023-02-15T13:18:29;15.70;;;13.80;;
7807;SDS011;3949;49.254;8.894;2023-02-15T13:20:56;15.20;;;13.67;;
7807;SDS011;3949;49.254;8.894;2023-02-15T13:23:26;15.83;;;13.80;;
7807;SDS011;3949;49.254;8.894;2023-02-15T13:25:57;16.67;;;14.33;;
7807;SDS011;3949;49.254;8.894;2023-02-15T13:28:33;16.60;;;14.30;;
7807;SDS011;3949;49.254;8.894;2023-02-15T13:31:02;16.10;;;13.57;;
7807;SDS011;3949;49.254;8.894;2023-02-15T13:33:32;15.37;;;13.47;;
7807;SDS011;3949;49.254;8.894;2023-02-15T13:36:07;16.13;;;13.53;;
7807;SDS011;3949;49.254;8.894;2023-02-15T13:42:05;15.90;;;14.30;;
7807;SDS011;3949;49.254;8.894;2023-02-15T13:44:12;14.73;;;13.23;;
7807;SDS011;3949;49.254;8.894;2023-02-15T13:54:58;15.17;;;13.57;;
7807;SDS011;3949;49.254;8.894;2023-02-15T14:02:35;15.13;;;13.60;;
7807;SDS011;3949;49.254;8.894;2023-02-15T14:07:56;15.97;;;14.37;;
7807;SDS011;3949;49.254;8.894;2023-02-15T14:10:37;16.30;;;14.10;;
7807;SDS011;3949;49.254;8.894;2023-02-15T14:20:57;16.97;;;15.27;;
7807;SDS011;3949;49.254;8.894;2023-02-15T14:31:39;16.13;;;14.47;;
7807;SDS011;3949;49.254;8.894;2023-02-15T14:34:07;14.37;;;12.87;;
7807;SDS011;3949;49.254;8.894;2023-02-15T14:36:43;15.67;;;14.07;;
7807;SDS011;3949;49.254;8.894;2023-02-15T14:39:23;17.03;;;14.77;;
7807;SDS011;3949;49.254;8.894;2023-02-15T14:47:34;16.10;;;14.27;;
7807;SDS011;3949;49.254;8.894;2023-02-15T14:55:35;17.20;;;15.33;;
7807;SDS011;3949;49.254;8.894;2023-02-15T14:58:09;17.63;;;14.83;;
7807;SDS011;3949;49.254;8.894;2023-02-15T15:00:36;17.63;;;15.60;;
7807;SDS011;3949;49.254;8.894;2023-02-15T15:03:10;16.63;;;14.53;;
7807;SDS011;3949;49.254;8.894;2023-02-15T15:05:37;17.63;;;15.77;;
7807;SDS011;3949;49.254;8.894;2023-02-15T15:08:34;17.17;;;14.93;;
7807;SDS011;3949;49.254;8.894;2023-02-15T15:11:11;18.23;;;14.80;;
7807;SDS011;3949;49.254;8.894;2023-02-15T15:13:52;17.33;;;14.33;;
7807;SDS011;3949;49.254;8.894;2023-02-15T15:18:56;17.83;;;14.77;;
7807;SDS011;3949;49.254;8.894;2023-02-15T15:29:49;18.80;;;15.27;;
7807;SDS011;3949;49.254;8.894;2023-02-15T15:32:17;18.13;;;15.27;;
7807;SDS011;3949;49.254;8.894;2023-02-15T15:34:54;17.73;;;14.77;;
7807;SDS011;3949;49.254;8.894;2023-02-15T15:50:18;19.00;;;15.50;;
7807;SDS011;3949;49.254;8.894;2023-02-15T15:52:48;18.00;;;15.17;;
7807;SDS011;3949;49.254;8.894;2023-02-15T15:55:16;18.33;;;15.17;;
7807;SDS011;3949;49.254;8.894;2023-02-15T15:57:47;20.20;;;15.87;;
7807;SDS011;3949;49.254;8.894;2023-02-15T16:00:35;19.80;;;15.33;;
7807;SDS011;3949;49.254;8.894;2023-02-15T16:03:03;18.13;;;15.17;;
7807;SDS011;3949;49.254;8.894;2023-02-15T16:05:38;18.83;;;16.23;;
7807;SDS011;3949;49.254;8.894;2023-02-15T16:08:05;22.47;;;16.57;;
7807;SDS011;3949;49.254;8.894;2023-02-15T16:10:31;18.27;;;15.63;;
7807;SDS011;3949;49.254;8.894;2023-02-15T16:12:59;20.13;;;16.33;;
7807;SDS011;3949;49.254;8.894;2023-02-15T16:15:27;19.97;;;16.73;;
7807;SDS011;3949;49.254;8.894;2023-02-15T16:17:56;22.33;;;17.47;;
7807;SDS011;3949;49.254;8.894;2023-02-15T16:20:31;21.37;;;16.43;;
7807;SDS011;3949;49.254;8.894;2023-02-15T16:27:56;21.40;;;16.50;;
7807;SDS011;3949;49.254;8.894;2023-02-15T16:30:40;22.43;;;17.20;;
7807;SDS011;3949;49.254;8.894;2023-02-15T16:35:40;21.73;;;16.97;;
7807;SDS011;3949;49.254;8.894;2023-02-15T16:38:10;21.77;;;17.73;;
7807;SDS011;3949;49.254;8.894;2023-02-15T16:43:03;22.63;;;18.10;;
7807;SDS011;3949;49.254;8.894;2023-02-15T16:45:31;22.80;;;18.13;;
7807;SDS011;3949;49.254;8.894;2023-02-15T16:47:58;21.40;;;16.50;;
7807;SDS011;3949;49.254;8.894;2023-02-15T16:50:30;22.13;;;16.30;;
7807;SDS011;3949;49.254;8.894;2023-02-15T16:52:57;20.43;;;15.40;;
7807;SDS011;3949;49.254;8.894;2023-02-15T16:55:24;22.40;;;18.37;;
7807;SDS011;3949;49.254;8.894;2023-02-15T16:57:50;21.70;;;17.47;;
7807;SDS011;3949;49.254;8.894;2023-02-15T17:00:21;20.97;;;17.00;;
7807;SDS011;3949;49.254;8.894;2023-02-15T17:05:20;23.83;;;18.07;;
7807;SDS011;3949;49.254;8.894;2023-02-15T17:07:50;31.33;;;24.50;;
7807;SDS011;3949;49.254;8.894;2023-02-15T17:10:30;54.23;;;42.47;;
7807;SDS011;3949;49.254;8.894;2023-02-15T17:13:01;31.80;;;25.83;;
7807;SDS011;3949;49.254;8.894;2023-02-15T17:15:31;37.97;;;26.80;;
7807;SDS011;3949;49.254;8.894;2023-02-15T17:17:59;38.33;;;26.50;;
7807;SDS011;3949;49.254;8.894;2023-02-15T17:20:25;36.97;;;25.13;;
7807;SDS011;3949;49.254;8.894;2023-02-15T17:22:52;33.23;;;22.50;;
7807;SDS011;3949;49.254;8.894;2023-02-15T17:25:19;31.70;;;22.30;;
7807;SDS011;3949;49.254;8.894;2023-02-15T17:27:50;25.73;;;19.83;;
7807;SDS011;3949;49.254;8.894;2023-02-15T17:30:20;26.83;;;18.83;;
7807;SDS011;3949;49.254;8.894;2023-02-15T17:32:55;25.13;;;18.60;;
7807;SDS011;3949;49.254;8.894;2023-02-15T17:35:22;25.80;;;17.83;;
7807;SDS011;3949;49.254;8.894;2023-02-15T17:37:50;21.33;;;17.03;;
7807;SDS011;3949;49.254;8.894;2023-02-15T17:42:51;23.83;;;18.37;;
7807;SDS011;3949;49.254;8.894;2023-02-15T17:45:17;26.73;;;19.03;;
7807;SDS011;3949;49.254;8.894;2023-02-15T17:47:43;29.03;;;19.93;;
7807;SDS011;3949;49.254;8.894;2023-02-15T17:50:16;76.43;;;48.87;;
7807;SDS011;3949;49.254;8.894;2023-02-15T17:52:43;49.80;;;35.37;;
7807;SDS011;3949;49.254;8.894;2023-02-15T17:55:12;38.97;;;27.90;;